Главная страница
METAR-TAF:

METAR-TAF

Аэропорты :

Дебрецен, Венгрия

широта: 47-29N, долгота: 021-36E, высота над уровнем моря: 108 м

Текущие метеонаблюдения

Эта сводка был подготовлена 48 минут назад, в 00:15 UTC
Ветер 3 Узел от северо-восточный
Температура 5°C
Влажность 100%
Давление 1002 hPa
Видимость: 5000 м
Сплошная облачность на высоте 4400 фута
дымка

METAR: LHDC 130015Z AUTO 05003KT 5000 BR OVC044 05/05 Q1002 NOSIG

Время: 02:03 (01:03 UTC)

Прогноз

Эта сводка был подготовлена 4 часа и 48 минут назад, в 20:15 UTC
Прогноз действительный с 12-го 21 UTC до 13-го 06 UTC
Ветер 5 Узел от восточный
Видимость: 6000 м
временами
С 12-го 21 UTC до 13-го 06 UTC
Видимость: 3000 м
Отдельные облака на высоте 500 фута
Сплошная облачность на высоте 5000 фута
небольшой дождь, дымка

TAF: LHDC 122015Z 1221/1306 09005KT 6000 NSC TEMPO 1221/1306 3000 -RA BR SCT005 OVC050

Метеонаблюдения и прогнозы для более 4000 аэропортов (сводки METAR и TAF).

Имеющиеся станции представлены на карте желтыми и красными точками.

Чтобы увидеть название станции, наведите на нее мышь.

Затем щелкните, чтобы увидеть метеонаблюдения и метеопрогнозы.

Управление картой: чтобы увеличить масштаб, щелкните зеленые кнопки с черным крестиком; чтобы уменьшить масштаб, щелкните зеленую кнопку с тире; для просмотра соседних карт щелкайте зеленые стрелки.


METAR-TAF: